createdAt,value
2022-09-01T00:01:55.972Z,15.60
2022-09-01T00:04:03.166Z,15.40
2022-09-01T00:06:09.473Z,13.70
2022-09-01T00:08:12.125Z,14.82
2022-09-01T00:10:20.736Z,13.85
2022-09-01T00:12:25.688Z,15.38
2022-09-01T00:14:31.301Z,18.60
2022-09-01T00:16:34.477Z,11.63
2022-09-01T00:18:37.293Z,13.70
2022-09-01T00:20:41.238Z,19.35
2022-09-01T00:22:43.826Z,16.10
2022-09-01T00:24:46.774Z,20.77
2022-09-01T00:26:50.298Z,14.68
2022-09-01T00:28:53.057Z,12.82
2022-09-01T00:30:55.728Z,13.68
2022-09-01T00:32:58.419Z,11.65
2022-09-01T00:35:01.017Z,16.90
2022-09-01T00:37:05.189Z,18.90
2022-09-01T00:39:08.339Z,16.20
2022-09-01T00:41:14.333Z,21.63
2022-09-01T00:43:22.366Z,19.05
2022-09-01T00:45:25.116Z,18.35
2022-09-01T00:47:27.688Z,15.85
2022-09-01T00:49:35.061Z,14.00
2022-09-01T00:51:40.081Z,14.55
2022-09-01T00:53:45.690Z,11.77
2022-09-01T00:55:48.378Z,16.70
2022-09-01T00:57:51.276Z,17.38
2022-09-01T00:59:58.463Z,18.65
2022-09-01T01:02:01.134Z,15.38
2022-09-01T01:04:05.212Z,16.60
2022-09-01T01:06:09.413Z,17.67
2022-09-01T01:08:12.065Z,14.30
2022-09-01T01:10:18.267Z,17.60
2022-09-01T01:12:21.676Z,17.00
2022-09-01T01:14:24.284Z,16.95
2022-09-01T01:16:29.453Z,14.93
2022-09-01T01:18:32.357Z,22.77
2022-09-01T01:20:53.249Z,18.55
2022-09-01T01:23:10.739Z,16.77
2022-09-01T01:25:14.968Z,14.45
2022-09-01T01:27:21.855Z,14.10
2022-09-01T01:29:24.979Z,17.30
2022-09-01T01:31:27.547Z,15.23
2022-09-01T01:33:33.770Z,14.70
2022-09-01T01:35:37.499Z,20.48
2022-09-01T01:37:40.125Z,22.48
2022-09-01T01:39:44.733Z,15.57
2022-09-01T01:41:50.768Z,17.60
2022-09-01T01:43:53.373Z,13.98
2022-09-01T01:46:02.392Z,12.27
2022-09-01T01:48:08.495Z,19.00
2022-09-01T01:50:11.461Z,13.98
2022-09-01T01:52:17.605Z,18.38
2022-09-01T01:54:20.185Z,17.88
2022-09-01T01:56:25.616Z,21.23
2022-09-01T01:58:30.341Z,12.40
2022-09-01T02:00:34.586Z,18.08
2022-09-01T02:02:38.639Z,15.43
2022-09-01T02:04:42.382Z,17.35
2022-09-01T02:06:46.228Z,13.25
2022-09-01T02:08:48.804Z,18.27
2022-09-01T02:10:54.657Z,14.43
2022-09-01T02:12:58.054Z,14.65
2022-09-01T02:15:04.652Z,18.95
2022-09-01T02:17:08.143Z,15.32
2022-09-01T02:19:12.252Z,18.20
2022-09-01T02:21:19.624Z,15.90
2022-09-01T02:23:24.491Z,19.88
2022-09-01T02:25:27.473Z,22.10
2022-09-01T02:27:30.054Z,30.50
2022-09-01T02:29:33.249Z,17.48
2022-09-01T02:31:44.632Z,16.00
2022-09-01T02:33:47.507Z,15.80
2022-09-01T02:35:54.131Z,16.23
2022-09-01T02:38:00.996Z,12.73
2022-09-01T02:40:04.179Z,17.65
2022-09-01T02:42:08.490Z,12.18
2022-09-01T02:44:12.666Z,12.35
2022-09-01T02:46:16.553Z,21.00
2022-09-01T02:48:24.473Z,15.52
2022-09-01T02:50:27.349Z,12.60
2022-09-01T02:52:37.519Z,10.60
2022-09-01T02:54:40.134Z,18.38
2022-09-01T02:56:42.706Z,12.57
2022-09-01T02:58:46.937Z,14.70
2022-09-01T03:00:54.162Z,12.95
2022-09-01T03:02:58.873Z,13.18
2022-09-01T03:05:02.909Z,10.65
2022-09-01T03:07:08.841Z,11.85
2022-09-01T03:09:14.740Z,13.10
2022-09-01T03:11:18.508Z,16.10
2022-09-01T03:13:23.716Z,12.35
2022-09-01T03:15:27.456Z,12.45
2022-09-01T03:17:30.024Z,12.00
2022-09-01T03:19:41.888Z,11.07
2022-09-01T03:23:52.080Z,13.93
2022-09-01T03:25:54.942Z,12.65
2022-09-01T03:28:03.029Z,10.82
2022-09-01T03:30:06.754Z,12.65
2022-09-01T03:32:09.431Z,11.43
2022-09-01T03:34:12.552Z,10.88
2022-09-01T03:36:19.327Z,11.00
2022-09-01T03:38:24.539Z,12.00
2022-09-01T03:40:30.022Z,12.77
2022-09-01T03:42:32.709Z,10.05
2022-09-01T03:44:40.206Z,13.27
2022-09-01T03:46:43.603Z,12.38
2022-09-01T03:48:47.815Z,11.40
2022-09-01T03:50:50.861Z,12.68
2022-09-01T03:52:56.658Z,14.20
2022-09-01T03:55:00.633Z,13.60
2022-09-01T03:57:05.981Z,10.35
2022-09-01T03:59:08.742Z,13.75
2022-09-01T04:01:13.582Z,14.50
2022-09-01T04:03:28.448Z,12.20
2022-09-01T04:05:33.949Z,12.98
2022-09-01T04:07:36.520Z,22.38
2022-09-01T04:09:39.851Z,15.77
2022-09-01T04:11:46.284Z,17.42
2022-09-01T04:13:48.993Z,15.45
2022-09-01T04:15:51.591Z,13.27
2022-09-01T04:18:09.665Z,13.68
2022-09-01T04:20:12.960Z,16.00
2022-09-01T04:22:17.598Z,13.65
2022-09-01T04:24:21.032Z,14.15
2022-09-01T04:26:26.785Z,14.52
2022-09-01T04:28:37.390Z,14.13
2022-09-01T04:30:40.724Z,14.68
2022-09-01T04:32:46.875Z,15.05
2022-09-01T04:34:49.729Z,18.13
2022-09-01T04:36:56.762Z,14.82
2022-09-01T04:39:08.756Z,16.35
2022-09-01T04:41:17.712Z,13.60
2022-09-01T04:43:20.459Z,17.38
2022-09-01T04:45:25.249Z,12.20
2022-09-01T04:47:35.263Z,15.10
2022-09-01T04:49:38.578Z,17.48
2022-09-01T04:51:42.003Z,14.98
2022-09-01T04:53:48.695Z,14.27
2022-09-01T04:55:52.465Z,16.50
2022-09-01T04:57:55.807Z,12.77
2022-09-01T04:59:58.507Z,19.27
2022-09-01T05:02:02.496Z,18.08
2022-09-01T05:04:05.249Z,14.68
2022-09-01T05:06:14.665Z,15.35
2022-09-01T05:08:23.935Z,14.02
2022-09-01T05:10:29.954Z,15.95
2022-09-01T05:12:32.740Z,16.65
2022-09-01T05:14:35.335Z,17.10
2022-09-01T05:16:38.924Z,15.15
2022-09-01T05:18:47.745Z,16.63
2022-09-01T05:20:53.031Z,15.45
2022-09-01T05:22:57.471Z,16.70
2022-09-01T05:25:13.134Z,18.63
2022-09-01T05:27:16.003Z,20.63
2022-09-01T05:29:19.008Z,19.92
2022-09-01T05:31:22.027Z,16.27
2022-09-01T05:33:24.617Z,15.23
2022-09-01T05:35:32.864Z,15.82
2022-09-01T05:37:38.004Z,19.80
2022-09-01T05:39:40.591Z,21.65
2022-09-01T05:41:43.794Z,22.23
2022-09-01T05:43:55.084Z,20.70
2022-09-01T05:46:11.280Z,19.80
2022-09-01T05:48:21.816Z,18.48
2022-09-01T05:50:24.489Z,18.40
2022-09-01T05:52:31.624Z,20.60
2022-09-01T05:54:34.861Z,26.75
2022-09-01T05:56:43.511Z,19.30
2022-09-01T06:01:13.341Z,22.00
2022-09-01T06:03:17.726Z,24.50
2022-09-01T06:05:20.892Z,26.20
2022-09-01T06:07:26.668Z,24.83
2022-09-01T06:09:30.671Z,23.70
2022-09-01T06:11:33.312Z,28.33
2022-09-01T06:13:35.884Z,27.42
2022-09-01T06:15:39.486Z,28.77
2022-09-01T06:17:43.825Z,32.17
2022-09-01T06:19:46.737Z,32.17
2022-09-01T06:21:49.373Z,33.75
2022-09-01T06:23:54.001Z,28.02
2022-09-01T06:26:01.704Z,29.27
2022-09-01T06:28:04.928Z,30.83
2022-09-01T06:30:15.057Z,27.50
2022-09-01T06:32:19.308Z,30.20
2022-09-01T06:34:22.349Z,29.25
2022-09-01T06:36:26.026Z,27.15
2022-09-01T06:38:29.396Z,25.83
2022-09-01T06:40:32.398Z,29.70
2022-09-01T06:42:37.794Z,24.98
2022-09-01T06:44:41.182Z,29.17
2022-09-01T06:46:43.858Z,26.73
2022-09-01T06:48:47.343Z,30.48
2022-09-01T06:53:34.323Z,25.33
2022-09-01T06:55:39.099Z,28.10
2022-09-01T07:00:18.812Z,30.23
2022-09-01T07:02:26.913Z,26.70
2022-09-01T07:04:31.399Z,34.03
2022-09-01T07:16:33.869Z,31.92
2022-09-01T07:18:38.182Z,29.02
2022-09-01T07:23:07.080Z,29.85
2022-09-01T07:25:12.875Z,28.83
2022-09-01T07:27:15.911Z,28.48
2022-09-01T07:29:25.700Z,26.48
2022-09-01T07:34:38.526Z,25.55
2022-09-01T07:36:26.820Z,26.65
2022-09-01T07:42:59.234Z,28.38
2022-09-01T07:43:22.265Z,29.58
2022-09-01T07:45:26.924Z,26.63
2022-09-01T07:50:24.283Z,28.13
2022-09-01T07:52:17.444Z,25.75
2022-09-01T07:54:25.499Z,29.58
2022-09-01T07:56:30.171Z,25.95
2022-09-01T07:58:33.599Z,23.42
2022-09-01T08:00:38.087Z,25.77
2022-09-01T08:02:40.824Z,25.35
2022-09-01T08:04:43.430Z,29.40
2022-09-01T08:06:46.012Z,27.35
2022-09-01T08:08:50.775Z,24.25
2022-09-01T08:10:53.402Z,25.75
2022-09-01T08:12:56.860Z,22.60
2022-09-01T08:15:40.490Z,22.05
2022-09-01T08:19:47.007Z,24.05
2022-09-01T08:21:49.659Z,35.03
2022-09-01T08:23:54.109Z,31.63
2022-09-01T08:25:56.722Z,23.17
2022-09-01T08:28:00.648Z,25.63
2022-09-01T08:30:04.651Z,23.98
2022-09-01T08:32:08.422Z,24.20
2022-09-01T08:34:12.635Z,22.05
2022-09-01T08:36:21.549Z,17.38
2022-09-01T08:38:26.437Z,19.50
2022-09-01T08:40:30.361Z,16.65
2022-09-01T08:42:45.760Z,18.02
2022-09-01T08:45:00.216Z,17.38
2022-09-01T08:47:07.024Z,17.15
2022-09-01T08:49:25.311Z,17.42
2022-09-01T08:51:36.152Z,15.55
2022-09-01T08:53:45.540Z,14.40
2022-09-01T08:55:51.808Z,17.00
2022-09-01T08:57:59.744Z,13.38
2022-09-01T09:00:02.702Z,14.95
2022-09-01T09:02:17.660Z,15.43
2022-09-01T09:04:38.261Z,13.13
2022-09-01T09:06:55.415Z,13.80
2022-09-01T09:08:59.694Z,13.55
2022-09-01T09:11:05.288Z,12.20
2022-09-01T09:13:13.384Z,11.88
2022-09-01T09:15:23.465Z,14.18
2022-09-01T09:17:31.006Z,10.77
2022-09-01T09:19:37.892Z,12.10
2022-09-01T09:21:42.769Z,14.50
2022-09-01T09:23:49.648Z,10.40
2022-09-01T09:25:52.312Z,8.43
2022-09-01T09:28:02.002Z,10.32
2022-09-01T09:30:11.187Z,10.50
2022-09-01T09:32:50.426Z,7.53
2022-09-01T09:34:40.292Z,5.68
2022-09-01T09:36:48.039Z,7.35
2022-09-01T09:39:11.994Z,6.43
2022-09-01T09:41:26.539Z,6.78
2022-09-01T09:43:32.863Z,4.70
2022-09-01T09:45:41.658Z,9.10
2022-09-01T09:47:46.645Z,5.22
2022-09-01T09:50:12.461Z,5.43
2022-09-01T09:52:19.039Z,8.18
2022-09-01T09:54:26.701Z,4.90
2022-09-01T09:56:29.327Z,5.78
2022-09-01T09:58:39.044Z,6.97
2022-09-01T10:00:44.721Z,9.10
2022-09-01T10:02:54.323Z,10.15
2022-09-01T10:04:59.313Z,9.35
2022-09-01T10:07:01.985Z,25.50
2022-09-01T10:09:07.026Z,27.08
2022-09-01T10:11:10.383Z,15.90
2022-09-01T10:13:15.658Z,19.52
2022-09-01T10:15:21.271Z,12.98
2022-09-01T10:17:30.442Z,6.60
2022-09-01T10:19:35.889Z,5.03
2022-09-01T10:21:42.096Z,5.65
2022-09-01T10:23:45.110Z,7.55
2022-09-01T10:25:51.105Z,4.88
2022-09-01T10:27:59.258Z,8.20
2022-09-01T10:30:20.141Z,4.22
2022-09-01T10:32:36.956Z,8.70
2022-09-01T10:34:42.685Z,6.45
2022-09-01T10:36:55.892Z,4.80
2022-09-01T10:39:05.008Z,5.22
2022-09-01T10:41:14.000Z,4.40
2022-09-01T10:43:45.078Z,4.18
2022-09-01T10:45:53.335Z,6.38
2022-09-01T10:48:33.296Z,4.70
2022-09-01T10:50:36.517Z,9.43
2022-09-01T10:53:01.764Z,6.18
2022-09-01T10:55:07.407Z,3.83
2022-09-01T10:57:12.666Z,6.47
2022-09-01T10:59:40.330Z,6.10
2022-09-01T11:02:35.291Z,6.93
2022-09-01T11:05:24.706Z,11.10
2022-09-01T11:07:56.587Z,8.52
2022-09-01T11:10:34.729Z,6.85
2022-09-01T11:12:48.790Z,4.28
2022-09-01T11:14:54.833Z,8.90
2022-09-01T11:17:15.540Z,6.25
2022-09-01T11:19:44.505Z,9.13
2022-09-01T11:21:48.379Z,4.65
2022-09-01T11:23:52.749Z,4.35
2022-09-01T11:28:38.542Z,4.80
2022-09-01T11:30:52.015Z,6.55
2022-09-01T11:33:03.373Z,7.13
2022-09-01T11:35:16.583Z,6.63
2022-09-01T11:37:23.302Z,6.03
2022-09-01T11:39:33.466Z,3.72
2022-09-01T11:41:55.861Z,4.63
2022-09-01T11:44:01.848Z,4.80
2022-09-01T11:46:14.984Z,5.35
2022-09-01T11:48:18.427Z,7.22
2022-09-01T11:50:24.968Z,6.80
2022-09-01T11:52:32.121Z,5.30
2022-09-01T11:54:41.268Z,6.10
2022-09-01T11:56:45.263Z,8.27
2022-09-01T11:58:47.904Z,4.07
2022-09-01T12:00:50.504Z,4.63
2022-09-01T12:02:57.144Z,4.80
2022-09-01T12:05:02.019Z,5.50
2022-09-01T12:07:10.807Z,3.85
2022-09-01T12:09:13.780Z,4.68
2022-09-01T12:11:22.424Z,5.57
2022-09-01T12:13:26.374Z,5.75
2022-09-01T12:15:30.655Z,6.72
2022-09-01T12:17:33.288Z,5.40
2022-09-01T12:19:38.544Z,4.30
2022-09-01T12:21:44.716Z,4.47
2022-09-01T12:23:47.632Z,4.40
2022-09-01T12:25:50.476Z,3.55
2022-09-01T12:27:53.570Z,4.43
2022-09-01T12:29:58.765Z,4.53
2022-09-01T12:32:02.270Z,7.15
2022-09-01T12:34:04.993Z,6.22
2022-09-01T12:36:23.765Z,3.33
2022-09-01T12:38:30.627Z,4.93
2022-09-01T12:40:36.359Z,5.78
2022-09-01T12:42:41.556Z,4.15
2022-09-01T12:44:51.350Z,4.10
2022-09-01T12:46:55.596Z,3.83
2022-09-01T12:49:17.702Z,4.03
2022-09-01T12:51:26.504Z,4.18
2022-09-01T12:53:36.508Z,2.80
2022-09-01T12:55:54.838Z,3.83
2022-09-01T12:57:59.961Z,4.03
2022-09-01T13:00:18.026Z,3.55
2022-09-01T13:02:36.243Z,4.05
2022-09-01T13:04:38.932Z,6.47
2022-09-01T13:06:41.854Z,3.50
2022-09-01T13:08:44.627Z,3.67
2022-09-01T13:10:49.317Z,6.22
2022-09-01T13:12:52.669Z,5.97
2022-09-01T13:14:55.240Z,5.95
2022-09-01T13:16:58.262Z,4.75
2022-09-01T13:19:26.562Z,4.43
2022-09-01T13:21:25.210Z,3.15
2022-09-01T13:23:27.920Z,5.20
2022-09-01T13:25:30.520Z,3.15
2022-09-01T13:27:33.116Z,5.05
2022-09-01T13:29:35.706Z,5.10
2022-09-01T13:32:16.072Z,4.07
2022-09-01T13:34:10.692Z,5.55
2022-09-01T13:38:45.977Z,3.42
2022-09-01T13:40:53.533Z,4.00
2022-09-01T13:42:56.185Z,6.20
2022-09-01T13:44:58.758Z,5.32
2022-09-01T13:47:28.665Z,4.18
2022-09-01T13:51:51.991Z,3.40
2022-09-01T13:53:55.104Z,6.13
2022-09-01T13:58:05.576Z,3.80
2022-09-01T14:00:11.695Z,3.53
2022-09-01T14:02:17.011Z,5.85
2022-09-01T14:04:22.902Z,4.97
2022-09-01T14:06:26.849Z,3.10
2022-09-01T14:08:30.724Z,4.38
2022-09-01T14:10:33.937Z,3.47
2022-09-01T14:12:36.646Z,3.10
2022-09-01T14:17:04.534Z,4.97
2022-09-01T14:19:07.192Z,3.00
2022-09-01T14:21:13.415Z,4.53
2022-09-01T14:23:18.112Z,2.88
2022-09-01T14:25:21.496Z,3.20
2022-09-01T14:27:24.108Z,4.18
2022-09-01T14:29:27.603Z,3.45
2022-09-01T14:31:30.499Z,2.88
2022-09-01T14:33:34.097Z,3.22
2022-09-01T14:35:38.947Z,2.88
2022-09-01T14:37:42.170Z,3.10
2022-09-01T14:39:50.384Z,3.38
2022-09-01T14:41:53.004Z,5.05
2022-09-01T14:44:02.338Z,3.22
2022-09-01T14:46:08.308Z,3.45
2022-09-01T14:48:11.247Z,4.05
2022-09-01T14:50:15.999Z,4.85
2022-09-01T14:52:22.101Z,3.63
2022-09-01T14:54:24.803Z,4.72
2022-09-01T14:56:30.057Z,5.57
2022-09-01T14:58:33.206Z,3.85
2022-09-01T15:00:37.008Z,4.38
2022-09-01T15:02:40.960Z,4.72
2022-09-01T15:04:43.634Z,4.00
2022-09-01T15:06:46.275Z,3.85
2022-09-01T15:08:49.498Z,5.10
2022-09-01T15:10:52.023Z,3.55
2022-09-01T15:12:58.671Z,2.95
2022-09-01T15:15:02.485Z,3.80
2022-09-01T15:17:06.999Z,4.40
2022-09-01T15:19:12.673Z,3.15
2022-09-01T15:21:20.399Z,3.67
2022-09-01T15:23:25.539Z,3.30
2022-09-01T15:25:28.148Z,5.78
2022-09-01T15:27:30.705Z,5.28
2022-09-01T15:29:36.836Z,3.92
2022-09-01T15:31:39.900Z,6.00
2022-09-01T15:33:43.154Z,3.88
2022-09-01T15:35:46.596Z,3.20
2022-09-01T15:37:50.090Z,3.90
2022-09-01T15:39:52.630Z,6.38
2022-09-01T15:41:55.230Z,3.50
2022-09-01T15:43:58.941Z,7.38
2022-09-01T15:46:05.425Z,3.95
2022-09-01T15:48:08.245Z,7.45
2022-09-01T15:50:16.843Z,5.47
2022-09-01T15:52:24.758Z,4.93
2022-09-01T15:54:30.501Z,4.55
2022-09-01T15:56:33.475Z,3.60
2022-09-01T15:58:57.527Z,7.43
2022-09-01T16:01:00.098Z,5.10
2022-09-01T16:03:04.415Z,5.47
2022-09-01T16:05:08.276Z,4.85
2022-09-01T16:07:10.921Z,3.42
2022-09-01T16:09:14.610Z,5.43
2022-09-01T16:11:17.391Z,3.53
2022-09-01T16:13:20.604Z,3.60
2022-09-01T16:15:25.463Z,3.10
2022-09-01T16:17:43.680Z,6.63
2022-09-01T16:19:55.956Z,4.90
2022-09-01T16:22:06.940Z,8.10
2022-09-01T16:24:13.067Z,6.00
2022-09-01T16:26:17.984Z,8.80
2022-09-01T16:28:27.619Z,5.45
2022-09-01T16:30:30.904Z,6.15
2022-09-01T16:32:33.703Z,5.68
2022-09-01T16:34:47.156Z,8.18
2022-09-01T16:36:57.502Z,5.97
2022-09-01T16:39:05.145Z,5.80
2022-09-01T16:41:13.808Z,4.40
2022-09-01T16:43:25.656Z,3.80
2022-09-01T16:45:43.159Z,3.83
2022-09-01T16:47:56.418Z,3.55
2022-09-01T16:50:06.854Z,6.05
2022-09-01T16:52:19.053Z,5.68
2022-09-01T16:54:30.804Z,3.97
2022-09-01T16:56:36.580Z,6.10
2022-09-01T16:58:47.174Z,3.85
2022-09-01T17:00:59.041Z,4.78
2022-09-01T17:03:10.042Z,4.80
2022-09-01T17:05:25.318Z,4.82
2022-09-01T17:07:38.276Z,4.93
2022-09-01T17:09:43.888Z,7.85
2022-09-01T17:11:52.771Z,4.30
2022-09-01T17:13:58.102Z,4.25
2022-09-01T17:16:07.883Z,3.95
2022-09-01T17:18:22.978Z,3.70
2022-09-01T17:20:30.097Z,4.75
2022-09-01T17:22:37.329Z,7.00
2022-09-01T17:24:42.722Z,4.32
2022-09-01T17:26:50.726Z,8.57
2022-09-01T17:28:58.600Z,4.72
2022-09-01T17:31:14.256Z,9.18
2022-09-01T17:33:24.542Z,5.18
2022-09-01T17:35:37.685Z,6.28
2022-09-01T17:37:56.355Z,8.13
2022-09-01T17:40:10.770Z,3.63
2022-09-01T17:42:24.932Z,6.00
2022-09-01T17:44:37.185Z,6.90
2022-09-01T17:46:44.509Z,7.20
2022-09-01T17:48:52.955Z,5.43
2022-09-01T17:51:03.516Z,7.75
2022-09-01T17:53:22.227Z,4.68
2022-09-01T17:55:40.381Z,8.18
2022-09-01T17:57:47.725Z,7.38
2022-09-01T17:59:57.563Z,5.60
2022-09-01T18:02:20.154Z,4.15
2022-09-01T18:04:40.103Z,5.00
2022-09-01T18:06:50.117Z,8.93
2022-09-01T18:08:58.129Z,9.20
2022-09-01T18:11:03.196Z,4.80
2022-09-01T18:13:08.093Z,4.05
2022-09-01T18:15:14.333Z,9.38
2022-09-01T18:17:23.534Z,9.70
2022-09-01T18:19:36.860Z,8.60
2022-09-01T18:21:49.299Z,8.13
2022-09-01T18:23:56.697Z,7.05
2022-09-01T18:26:07.336Z,4.85
2022-09-01T18:28:11.801Z,10.30
2022-09-01T18:30:22.361Z,8.40
2022-09-01T18:32:42.284Z,7.68
2022-09-01T18:35:02.876Z,13.63
2022-09-01T18:37:15.210Z,7.70
2022-09-01T18:39:28.111Z,10.45
2022-09-01T18:41:44.301Z,4.30
2022-09-01T18:43:55.487Z,8.88
2022-09-01T18:46:05.201Z,8.15
2022-09-01T18:48:19.872Z,6.93
2022-09-01T18:50:27.850Z,5.10
2022-09-01T18:52:50.355Z,4.90
2022-09-01T18:55:03.756Z,8.43
2022-09-01T18:57:07.882Z,10.88
2022-09-01T18:59:26.577Z,7.88
2022-09-01T19:01:50.236Z,6.43
2022-09-01T19:03:58.616Z,5.38
2022-09-01T19:06:20.807Z,8.07
2022-09-01T19:08:37.513Z,8.75
2022-09-01T19:10:45.861Z,12.52
2022-09-01T19:12:56.428Z,12.27
2022-09-01T19:15:11.571Z,13.40
2022-09-01T19:17:42.326Z,10.65
2022-09-01T19:19:49.758Z,10.57
2022-09-01T19:21:55.833Z,11.35
2022-09-01T19:24:03.152Z,10.27
2022-09-01T19:26:11.956Z,12.25
2022-09-01T19:28:20.540Z,8.90
2022-09-01T19:30:23.273Z,12.25
2022-09-01T19:32:29.698Z,10.82
2022-09-01T19:34:37.332Z,12.13
2022-09-01T19:36:42.946Z,11.43
2022-09-01T19:38:45.593Z,8.15
2022-09-01T19:40:51.658Z,8.38
2022-09-01T19:43:03.125Z,12.43
2022-09-01T19:45:12.345Z,9.85
2022-09-01T19:47:21.713Z,10.07
2022-09-01T19:49:38.273Z,9.77
2022-09-01T19:51:46.856Z,8.02
2022-09-01T19:53:55.122Z,11.43
2022-09-01T19:56:03.357Z,9.65
2022-09-01T19:58:11.063Z,10.77
2022-09-01T20:00:16.377Z,6.30
2022-09-01T20:02:27.890Z,13.18
2022-09-01T20:04:40.300Z,12.45
2022-09-01T20:06:47.536Z,8.05
2022-09-01T20:08:57.385Z,9.68
2022-09-01T20:11:05.198Z,9.90
2022-09-01T20:13:27.122Z,11.13
2022-09-01T20:17:41.820Z,7.60
2022-09-01T20:19:50.599Z,12.57
2022-09-01T20:21:53.662Z,6.63
2022-09-01T20:24:01.134Z,9.73
2022-09-01T20:26:07.325Z,6.78
2022-09-01T20:28:20.771Z,11.43
2022-09-01T20:30:25.498Z,9.63
2022-09-01T20:32:33.734Z,10.38
2022-09-01T20:34:44.570Z,8.40
2022-09-01T20:36:51.603Z,11.40
2022-09-01T20:39:19.506Z,9.48
2022-09-01T20:41:28.815Z,9.93
2022-09-01T20:43:38.930Z,7.40
2022-09-01T20:45:42.632Z,9.40
2022-09-01T20:47:50.362Z,9.52
2022-09-01T20:49:53.084Z,8.52
2022-09-01T20:52:01.252Z,10.38
2022-09-01T20:54:16.035Z,9.15
2022-09-01T20:56:23.231Z,7.97
2022-09-01T20:58:36.819Z,7.70
2022-09-01T21:00:49.666Z,11.85
2022-09-01T21:03:01.438Z,7.05
2022-09-01T21:07:16.502Z,9.52
2022-09-01T21:09:31.463Z,7.32
2022-09-01T21:11:43.095Z,6.40
2022-09-01T21:13:57.446Z,9.00
2022-09-01T21:16:07.560Z,12.48
2022-09-01T21:18:27.175Z,8.07
2022-09-01T21:20:39.549Z,9.27
2022-09-01T21:22:42.125Z,7.38
2022-09-01T21:24:44.731Z,9.30
2022-09-01T21:26:48.926Z,6.60
2022-09-01T21:28:56.720Z,12.82
2022-09-01T21:31:00.601Z,8.48
2022-09-01T21:33:04.460Z,6.90
2022-09-01T21:35:09.821Z,9.52
2022-09-01T21:37:12.813Z,6.75
2022-09-01T21:39:15.466Z,9.05
2022-09-01T21:41:18.145Z,6.25
2022-09-01T21:43:23.775Z,9.55
2022-09-01T21:45:28.181Z,5.80
2022-09-01T21:47:33.776Z,5.75
2022-09-01T21:49:36.840Z,7.75
2022-09-01T21:51:39.473Z,7.32
2022-09-01T21:53:43.338Z,10.27
2022-09-01T21:55:46.250Z,8.38
2022-09-01T21:57:51.907Z,11.38
2022-09-01T21:59:54.488Z,9.73
2022-09-01T22:01:58.439Z,8.57
2022-09-01T22:04:01.397Z,7.38
2022-09-01T22:06:04.100Z,7.35
2022-09-01T22:08:06.940Z,13.30
2022-09-01T22:10:12.750Z,8.88
2022-09-01T22:12:15.847Z,8.00
2022-09-01T22:14:19.135Z,8.40
2022-09-01T22:16:22.403Z,9.13
2022-09-01T22:18:26.439Z,9.55
2022-09-01T22:20:31.901Z,9.13
2022-09-01T22:22:35.525Z,8.55
2022-09-01T22:24:38.096Z,9.20
2022-09-01T22:26:40.646Z,14.23
2022-09-01T22:28:43.338Z,12.18
2022-09-01T22:30:47.206Z,10.85
2022-09-01T22:32:49.826Z,9.60
2022-09-01T22:34:53.836Z,7.35
2022-09-01T22:36:56.402Z,11.45
2022-09-01T22:38:59.860Z,7.78
2022-09-01T22:41:02.483Z,9.40
2022-09-01T22:43:05.632Z,9.38
2022-09-01T22:45:10.247Z,10.20
2022-09-01T22:47:12.885Z,11.55
2022-09-01T22:49:15.576Z,11.13
2022-09-01T22:51:19.880Z,5.53
2022-09-01T22:53:23.463Z,6.45
2022-09-01T22:55:28.081Z,9.95
2022-09-01T22:57:30.894Z,9.65
2022-09-01T22:59:33.617Z,7.95
2022-09-01T23:01:38.827Z,7.28
2022-09-01T23:03:42.446Z,4.97
2022-09-01T23:05:46.307Z,6.70
2022-09-01T23:07:50.393Z,6.15
2022-09-01T23:09:53.015Z,4.63
2022-09-01T23:11:56.420Z,4.57
2022-09-01T23:13:59.748Z,9.23
2022-09-01T23:16:04.197Z,8.57
2022-09-01T23:18:06.870Z,8.82
2022-09-01T23:20:13.095Z,5.93
2022-09-01T23:22:15.688Z,4.07
2022-09-01T23:24:20.048Z,4.97
2022-09-01T23:26:23.071Z,7.07
2022-09-01T23:28:25.678Z,6.53
2022-09-01T23:30:28.300Z,4.75
2022-09-01T23:32:33.372Z,4.40
2022-09-01T23:34:35.999Z,8.45
2022-09-01T23:36:38.756Z,4.75
2022-09-01T23:38:42.035Z,5.82
2022-09-01T23:40:48.465Z,5.13
2022-09-01T23:42:51.070Z,7.15
2022-09-01T23:44:53.837Z,6.80
2022-09-01T23:46:56.455Z,5.28
2022-09-01T23:48:59.733Z,5.88
2022-09-01T23:51:09.248Z,6.00
2022-09-01T23:53:12.425Z,6.85
2022-09-01T23:55:15.049Z,4.40
2022-09-01T23:57:19.068Z,5.30
2022-09-01T23:59:27.536Z,4.50
